createdAt,value
2022-10-22T00:00:40.224Z,100.00
2022-10-22T00:03:07.203Z,100.00
2022-10-22T00:05:34.186Z,100.00
2022-10-22T00:08:01.127Z,100.00
2022-10-22T00:10:28.095Z,100.00
2022-10-22T00:12:55.131Z,100.00
2022-10-22T00:15:22.221Z,100.00
2022-10-22T00:17:49.758Z,100.00
2022-10-22T00:20:16.755Z,100.00
2022-10-22T00:22:43.739Z,100.00
2022-10-22T00:25:10.753Z,100.00
2022-10-22T00:27:37.804Z,100.00
2022-10-22T00:30:05.516Z,100.00
2022-10-22T00:32:32.516Z,100.00
2022-10-22T00:34:59.455Z,100.00
2022-10-22T00:37:26.544Z,100.00
2022-10-22T00:39:53.571Z,100.00
2022-10-22T00:42:30.278Z,100.00
2022-10-22T00:45:10.618Z,100.00
2022-10-22T00:47:58.946Z,100.00
2022-10-22T00:50:39.792Z,100.00
2022-10-22T00:53:13.153Z,100.00
2022-10-22T00:55:42.205Z,100.00
2022-10-22T00:58:09.521Z,100.00
2022-10-22T01:00:36.786Z,100.00
2022-10-22T01:03:04.534Z,100.00
2022-10-22T01:05:41.298Z,100.00
2022-10-22T01:08:23.346Z,100.00
2022-10-22T01:11:22.400Z,100.00
2022-10-22T01:14:44.958Z,100.00
2022-10-22T01:17:48.693Z,100.00
2022-10-22T01:20:48.191Z,100.00
2022-10-22T01:23:52.655Z,100.00
2022-10-22T01:26:37.644Z,100.00
2022-10-22T01:29:14.587Z,100.00
2022-10-22T01:32:10.197Z,100.00
2022-10-22T01:34:41.396Z,100.00
2022-10-22T01:37:12.848Z,100.00
2022-10-22T01:39:42.252Z,100.00
2022-10-22T01:42:09.251Z,100.00
2022-10-22T01:44:37.417Z,100.00
2022-10-22T01:47:43.222Z,100.00
2022-10-22T01:50:49.751Z,100.00
2022-10-22T01:53:36.007Z,100.00
2022-10-22T01:56:32.572Z,100.00
2022-10-22T01:59:30.348Z,100.00
2022-10-22T02:02:28.127Z,100.00
2022-10-22T02:05:09.058Z,100.00
2022-10-22T02:08:10.680Z,100.00
2022-10-22T02:10:40.556Z,100.00
2022-10-22T02:13:17.239Z,100.00
2022-10-22T02:15:46.770Z,100.00
2022-10-22T02:18:16.705Z,100.00
2022-10-22T02:20:43.708Z,100.00
2022-10-22T02:23:11.333Z,100.00
2022-10-22T02:25:47.736Z,100.00
2022-10-22T02:28:32.438Z,100.00
2022-10-22T02:31:15.567Z,100.00
2022-10-22T02:33:48.824Z,100.00
2022-10-22T02:36:17.829Z,100.00
2022-10-22T02:38:47.520Z,100.00
2022-10-22T02:41:16.671Z,100.00
2022-10-22T02:43:50.632Z,100.00
2022-10-22T02:46:17.794Z,100.00
2022-10-22T02:48:44.829Z,100.00
2022-10-22T02:51:11.795Z,100.00
2022-10-22T02:53:38.861Z,100.00
2022-10-22T02:56:06.133Z,100.00
2022-10-22T02:58:33.138Z,100.00
2022-10-22T03:01:00.244Z,100.00
2022-10-22T03:03:27.226Z,100.00
2022-10-22T03:05:54.216Z,100.00
2022-10-22T03:08:21.173Z,100.00
2022-10-22T03:10:48.160Z,100.00
2022-10-22T03:13:15.082Z,100.00
2022-10-22T03:15:42.019Z,100.00
2022-10-22T03:18:08.967Z,100.00
2022-10-22T03:20:35.936Z,100.00
2022-10-22T03:23:03.334Z,100.00
2022-10-22T03:25:34.391Z,100.00
2022-10-22T03:28:07.127Z,100.00
2022-10-22T03:30:34.107Z,100.00
2022-10-22T03:33:01.061Z,100.00
2022-10-22T03:35:28.193Z,100.00
2022-10-22T03:37:55.280Z,100.00
2022-10-22T03:40:22.696Z,100.00
2022-10-22T03:42:49.717Z,100.00
2022-10-22T03:45:16.695Z,100.00
2022-10-22T03:47:44.011Z,100.00
2022-10-22T03:50:11.355Z,100.00
2022-10-22T03:52:40.284Z,100.00
2022-10-22T03:55:09.792Z,100.00
2022-10-22T03:57:36.976Z,100.00
2022-10-22T04:00:06.759Z,100.00
2022-10-22T04:02:33.736Z,100.00
2022-10-22T04:05:00.746Z,100.00
2022-10-22T04:07:27.804Z,100.00
2022-10-22T04:09:54.755Z,100.00
2022-10-22T04:12:21.674Z,100.00
2022-10-22T04:14:48.674Z,100.00
2022-10-22T04:17:16.103Z,100.00
2022-10-22T04:19:43.158Z,100.00
2022-10-22T04:22:10.135Z,100.00
2022-10-22T04:24:37.308Z,100.00
2022-10-22T04:27:04.456Z,100.00
2022-10-22T04:29:31.393Z,100.00
2022-10-22T04:31:58.361Z,100.00
2022-10-22T04:34:28.873Z,100.00
2022-10-22T04:36:56.466Z,100.00
2022-10-22T04:39:23.665Z,100.00
2022-10-22T04:41:50.586Z,100.00
2022-10-22T04:44:18.032Z,100.00
2022-10-22T04:46:45.281Z,100.00
2022-10-22T04:49:12.304Z,100.00
2022-10-22T04:51:39.744Z,100.00
2022-10-22T04:54:06.874Z,100.00
2022-10-22T04:56:33.859Z,100.00
2022-10-22T04:59:07.800Z,100.00
2022-10-22T05:01:43.191Z,100.00
2022-10-22T05:04:17.422Z,100.00
2022-10-22T05:06:45.286Z,100.00
2022-10-22T05:09:16.946Z,100.00
2022-10-22T05:11:48.254Z,100.00
2022-10-22T05:14:19.141Z,100.00
2022-10-22T05:16:48.268Z,100.00
2022-10-22T05:19:29.332Z,100.00
2022-10-22T05:22:00.280Z,100.00
2022-10-22T05:24:28.364Z,100.00
2022-10-22T05:26:57.748Z,100.00
2022-10-22T05:29:25.399Z,100.00
2022-10-22T05:31:53.326Z,100.00
2022-10-22T05:34:20.420Z,100.00
2022-10-22T05:36:47.408Z,100.00
2022-10-22T05:39:14.408Z,100.00
2022-10-22T05:41:41.659Z,100.00
2022-10-22T05:44:11.890Z,100.00
2022-10-22T05:46:38.861Z,100.00
2022-10-22T05:49:07.103Z,100.00
2022-10-22T05:51:36.517Z,100.00
2022-10-22T05:54:07.813Z,100.00
2022-10-22T05:56:36.639Z,100.00
2022-10-22T06:01:35.870Z,100.00
2022-10-22T06:04:07.014Z,100.00
2022-10-22T06:06:36.006Z,100.00
2022-10-22T06:09:23.875Z,100.00
2022-10-22T06:11:52.095Z,100.00
2022-10-22T06:14:20.397Z,100.00
2022-10-22T06:16:47.872Z,100.00
2022-10-22T06:19:17.618Z,100.00
2022-10-22T06:21:45.601Z,100.00
2022-10-22T06:24:13.379Z,100.00
2022-10-22T06:26:41.171Z,100.00
2022-10-22T06:29:08.486Z,100.00
2022-10-22T06:31:38.713Z,100.00
2022-10-22T06:34:08.321Z,100.00
2022-10-22T06:36:36.132Z,100.00
2022-10-22T06:39:03.861Z,100.00
2022-10-22T06:41:31.232Z,100.00
2022-10-22T06:43:58.335Z,100.00
2022-10-22T06:46:26.427Z,100.00
2022-10-22T06:48:57.872Z,100.00
2022-10-22T06:51:26.530Z,100.00
2022-10-22T06:53:55.588Z,100.00
2022-10-22T06:56:27.029Z,100.00
2022-10-22T06:58:56.806Z,100.00
2022-10-22T07:01:28.994Z,100.00
2022-10-22T07:03:56.371Z,100.00
2022-10-22T07:06:25.403Z,100.00
2022-10-22T07:08:54.166Z,100.00
2022-10-22T07:11:28.010Z,100.00
2022-10-22T07:13:57.341Z,100.00
2022-10-22T07:16:29.552Z,100.00
2022-10-22T07:19:00.483Z,100.00
2022-10-22T07:21:27.832Z,100.00
2022-10-22T07:23:54.954Z,100.00
2022-10-22T07:26:24.870Z,100.00
2022-10-22T07:28:52.386Z,100.00
2022-10-22T07:31:19.762Z,100.00
2022-10-22T07:33:46.976Z,100.00
2022-10-22T07:36:19.143Z,100.00
2022-10-22T07:38:49.039Z,100.00
2022-10-22T07:41:17.100Z,100.00
2022-10-22T07:43:44.781Z,100.00
2022-10-22T07:46:12.453Z,100.00
2022-10-22T07:48:39.715Z,100.00
2022-10-22T07:51:07.151Z,100.00
2022-10-22T07:53:34.401Z,100.00
2022-10-22T07:56:01.609Z,100.00
2022-10-22T07:58:28.740Z,100.00
2022-10-22T08:00:58.156Z,100.00
2022-10-22T08:03:25.112Z,100.00
2022-10-22T08:05:52.768Z,100.00
2022-10-22T08:08:20.692Z,100.00
2022-10-22T08:10:50.802Z,100.00
2022-10-22T08:13:17.762Z,100.00
2022-10-22T08:15:46.749Z,100.00
2022-10-22T08:18:14.222Z,100.00
2022-10-22T08:20:41.598Z,100.00
2022-10-22T08:23:09.086Z,100.00
2022-10-22T08:25:36.468Z,100.00
2022-10-22T08:28:03.849Z,100.00
2022-10-22T08:30:30.866Z,100.00
2022-10-22T08:32:57.827Z,100.00
2022-10-22T08:35:24.893Z,100.00
2022-10-22T08:37:51.837Z,100.00
2022-10-22T08:40:31.694Z,100.00
2022-10-22T08:43:27.703Z,100.00
2022-10-22T08:46:45.387Z,100.00
2022-10-22T08:49:34.300Z,100.00
2022-10-22T08:52:03.559Z,100.00
2022-10-22T08:54:53.755Z,100.00
2022-10-22T08:57:43.224Z,100.00
2022-10-22T09:00:36.402Z,100.00
2022-10-22T09:03:35.844Z,100.00
2022-10-22T09:06:22.776Z,100.00
2022-10-22T09:08:51.667Z,100.00
2022-10-22T09:11:37.772Z,100.00
2022-10-22T09:14:05.798Z,100.00
2022-10-22T09:17:04.043Z,100.00
2022-10-22T09:19:42.133Z,100.00
2022-10-22T09:22:51.022Z,100.00
2022-10-22T09:25:28.552Z,100.00
2022-10-22T09:27:58.562Z,100.00
2022-10-22T09:30:33.449Z,100.00
2022-10-22T09:33:06.203Z,100.00
2022-10-22T09:35:54.078Z,100.00
2022-10-22T09:38:29.873Z,100.00
2022-10-22T09:40:58.927Z,100.00
2022-10-22T09:43:26.331Z,100.00
2022-10-22T09:46:04.024Z,100.00
2022-10-22T09:48:41.399Z,100.00
2022-10-22T09:51:37.348Z,100.00
2022-10-22T09:54:17.610Z,100.00
2022-10-22T09:57:18.938Z,100.00
2022-10-22T09:59:50.102Z,100.00
2022-10-22T10:02:38.142Z,100.00
2022-10-22T10:05:06.563Z,100.00
2022-10-22T10:07:36.697Z,100.00
2022-10-22T10:10:30.743Z,100.00
2022-10-22T10:13:26.637Z,100.00
2022-10-22T10:16:12.336Z,100.00
2022-10-22T10:19:26.543Z,100.00
2022-10-22T10:22:27.142Z,100.00
2022-10-22T10:25:37.498Z,100.00
2022-10-22T10:28:19.650Z,100.00
2022-10-22T10:31:24.254Z,100.00
2022-10-22T10:34:03.912Z,100.00
2022-10-22T10:36:56.735Z,100.00
2022-10-22T10:39:48.638Z,100.00
2022-10-22T10:42:49.326Z,100.00
2022-10-22T10:45:32.705Z,100.00
2022-10-22T10:48:28.703Z,100.00
2022-10-22T10:51:38.206Z,100.00
2022-10-22T10:54:15.141Z,100.00
2022-10-22T10:57:00.316Z,100.00
2022-10-22T11:00:13.898Z,100.00
2022-10-22T11:02:58.396Z,100.00
2022-10-22T11:05:53.066Z,100.00
2022-10-22T11:08:39.585Z,100.00
2022-10-22T11:11:18.763Z,100.00
2022-10-22T11:14:30.125Z,100.00
2022-10-22T11:17:03.462Z,100.00
2022-10-22T11:20:03.380Z,100.00
2022-10-22T11:23:13.201Z,100.00
2022-10-22T11:25:47.144Z,100.00
2022-10-22T11:28:28.872Z,100.00
2022-10-22T11:31:16.723Z,100.00
2022-10-22T11:34:00.582Z,100.00
2022-10-22T11:36:42.793Z,100.00
2022-10-22T11:39:38.551Z,100.00
2022-10-22T11:42:12.213Z,100.00
2022-10-22T11:45:00.505Z,100.00
2022-10-22T11:48:11.395Z,100.00
2022-10-22T11:50:41.387Z,100.00
2022-10-22T11:53:14.492Z,100.00
2022-10-22T11:55:48.391Z,100.00
2022-10-22T11:58:44.893Z,100.00
2022-10-22T12:01:11.723Z,100.00
2022-10-22T12:03:53.892Z,100.00
2022-10-22T12:06:24.935Z,100.00
2022-10-22T12:08:54.769Z,100.00
2022-10-22T12:11:41.237Z,100.00
2022-10-22T12:14:32.325Z,100.00
2022-10-22T12:17:05.228Z,100.00
2022-10-22T12:19:44.893Z,100.00
2022-10-22T12:22:24.822Z,98.37
2022-10-22T12:24:58.840Z,97.69
2022-10-22T12:27:27.777Z,96.32
2022-10-22T12:29:58.072Z,92.76
2022-10-22T12:32:38.837Z,96.56
2022-10-22T12:35:18.921Z,93.79
2022-10-22T12:37:52.735Z,98.47
2022-10-22T12:40:25.285Z,96.96
2022-10-22T12:43:02.439Z,95.11
2022-10-22T12:45:36.634Z,97.39
2022-10-22T12:48:29.268Z,95.99
2022-10-22T12:51:02.054Z,97.09
2022-10-22T12:53:39.652Z,99.16
2022-10-22T12:56:16.288Z,97.01
2022-10-22T12:59:01.558Z,96.46
2022-10-22T13:01:36.348Z,94.99
2022-10-22T13:04:06.737Z,97.83
2022-10-22T13:06:36.919Z,94.60
2022-10-22T13:09:17.932Z,98.01
2022-10-22T13:12:03.079Z,96.22
2022-10-22T13:14:38.044Z,95.95
2022-10-22T13:17:23.947Z,96.41
2022-10-22T13:20:05.211Z,98.01
2022-10-22T13:22:39.369Z,98.25
2022-10-22T13:25:14.848Z,96.71
2022-10-22T13:28:07.931Z,97.66
2022-10-22T13:30:37.730Z,97.99
2022-10-22T13:33:19.880Z,97.78
2022-10-22T13:35:46.853Z,97.74
2022-10-22T13:38:22.287Z,99.12
2022-10-22T13:40:50.261Z,99.29
2022-10-22T13:43:18.428Z,98.81
2022-10-22T13:45:47.977Z,96.59
2022-10-22T13:48:23.148Z,96.41
2022-10-22T13:50:51.554Z,96.67
2022-10-22T13:53:23.944Z,97.78
2022-10-22T13:55:51.289Z,96.89
2022-10-22T13:58:21.665Z,96.39
2022-10-22T14:00:59.354Z,98.20
2022-10-22T14:03:34.906Z,98.05
2022-10-22T14:06:01.978Z,98.38
2022-10-22T14:08:29.094Z,98.90
2022-10-22T14:10:56.254Z,98.52
2022-10-22T14:13:23.393Z,98.25
2022-10-22T14:15:52.048Z,98.08
2022-10-22T14:18:27.302Z,98.61
2022-10-22T14:21:10.121Z,98.53
2022-10-22T14:23:37.189Z,98.00
2022-10-22T14:26:04.820Z,97.26
2022-10-22T14:28:41.050Z,97.44
2022-10-22T14:31:10.988Z,96.65
2022-10-22T14:33:39.069Z,97.18
2022-10-22T14:36:06.366Z,97.49
2022-10-22T14:38:33.741Z,97.89
2022-10-22T14:41:00.704Z,98.05
2022-10-22T14:43:31.053Z,98.49
2022-10-22T14:45:58.640Z,98.09
2022-10-22T14:48:25.585Z,97.13
2022-10-22T14:50:52.603Z,97.55
2022-10-22T14:53:19.610Z,97.76
2022-10-22T14:55:48.951Z,97.76
2022-10-22T14:58:15.921Z,98.67
2022-10-22T15:00:44.040Z,99.40
2022-10-22T15:03:11.738Z,99.33
2022-10-22T15:05:44.322Z,100.00
2022-10-22T15:08:15.605Z,100.00
2022-10-22T15:10:42.558Z,100.00
2022-10-22T15:13:09.922Z,100.00
2022-10-22T15:15:40.407Z,100.00
2022-10-22T15:18:07.789Z,100.00
2022-10-22T15:20:34.903Z,100.00
2022-10-22T15:23:02.463Z,100.00
2022-10-22T15:25:30.449Z,100.00
2022-10-22T15:28:01.888Z,100.00
2022-10-22T15:30:34.534Z,100.00
2022-10-22T15:33:02.096Z,100.00
2022-10-22T15:35:29.053Z,100.00
2022-10-22T15:37:56.242Z,98.42
2022-10-22T15:40:23.237Z,98.59
2022-10-22T15:42:50.155Z,98.65
2022-10-22T15:45:17.215Z,99.32
2022-10-22T15:47:48.564Z,99.74
2022-10-22T15:50:16.555Z,98.46
2022-10-22T15:52:43.575Z,97.93
2022-10-22T15:57:43.930Z,96.96
2022-10-22T16:00:12.019Z,96.55
2022-10-22T16:02:42.284Z,95.86
2022-10-22T16:05:09.863Z,94.74
2022-10-22T16:07:36.956Z,94.22
2022-10-22T16:10:04.792Z,94.32
2022-10-22T16:12:31.717Z,94.78
2022-10-22T16:14:58.645Z,94.03
2022-10-22T16:17:25.575Z,93.12
2022-10-22T16:19:52.525Z,93.38
2022-10-22T16:22:19.598Z,94.53
2022-10-22T16:24:46.605Z,94.48
2022-10-22T16:27:13.549Z,93.38
2022-10-22T16:29:40.568Z,93.01
2022-10-22T16:32:10.737Z,93.48
2022-10-22T16:34:37.666Z,93.21
2022-10-22T16:37:09.827Z,93.37
2022-10-22T16:39:37.097Z,93.25
2022-10-22T16:42:04.180Z,92.79
2022-10-22T16:44:31.118Z,92.86
2022-10-22T16:46:58.036Z,93.03
2022-10-22T16:49:25.046Z,92.80
2022-10-22T16:51:51.993Z,92.08
2022-10-22T16:54:19.205Z,92.33
2022-10-22T16:56:46.150Z,91.89
2022-10-22T16:59:13.114Z,91.89
2022-10-22T17:01:41.373Z,92.17
2022-10-22T17:04:08.835Z,92.19
2022-10-22T17:06:35.924Z,92.20
2022-10-22T17:09:03.899Z,92.62
2022-10-22T17:11:35.678Z,91.87
2022-10-22T17:14:04.280Z,92.14
2022-10-22T17:16:31.408Z,92.39
2022-10-22T17:18:58.596Z,92.67
2022-10-22T17:21:26.100Z,92.87
2022-10-22T17:23:57.482Z,93.04
2022-10-22T17:26:26.659Z,93.05
2022-10-22T17:28:54.521Z,92.88
2022-10-22T17:31:29.075Z,93.50
2022-10-22T17:33:57.244Z,92.52
2022-10-22T17:36:26.485Z,92.74
2022-10-22T17:38:57.441Z,92.82
2022-10-22T17:41:28.858Z,92.56
2022-10-22T17:43:57.131Z,92.48
2022-10-22T17:46:27.625Z,92.31
2022-10-22T17:49:12.199Z,92.45
2022-10-22T17:51:39.221Z,92.60
2022-10-22T17:54:09.025Z,92.27
2022-10-22T17:56:38.759Z,91.88
2022-10-22T17:59:07.186Z,91.46
2022-10-22T18:01:39.375Z,91.57
2022-10-22T18:04:08.517Z,91.22
2022-10-22T18:06:36.401Z,90.57
2022-10-22T18:09:06.144Z,90.33
2022-10-22T18:11:34.356Z,90.74
2022-10-22T18:14:02.553Z,90.63
2022-10-22T18:16:29.634Z,90.79
2022-10-22T18:18:57.723Z,90.29
2022-10-22T18:21:28.790Z,90.38
2022-10-22T18:23:57.450Z,90.39
2022-10-22T18:26:26.791Z,90.15
2022-10-22T18:28:56.436Z,90.48
2022-10-22T18:31:25.469Z,90.62
2022-10-22T18:36:24.350Z,90.26
2022-10-22T18:38:53.951Z,90.19
2022-10-22T18:41:21.837Z,90.56
2022-10-22T18:44:05.574Z,90.92
2022-10-22T18:46:34.965Z,90.76
2022-10-22T18:49:02.005Z,90.86
2022-10-22T18:51:31.595Z,91.00
2022-10-22T18:54:05.958Z,91.30
2022-10-22T18:56:46.523Z,90.91
2022-10-22T18:59:23.062Z,90.93
2022-10-22T19:01:52.212Z,91.52
2022-10-22T19:04:19.291Z,91.24
2022-10-22T19:06:46.736Z,91.33
2022-10-22T19:09:17.409Z,91.13
2022-10-22T19:11:45.866Z,91.08
2022-10-22T19:14:19.261Z,91.22
2022-10-22T19:16:46.586Z,91.27
2022-10-22T19:19:19.324Z,91.16
2022-10-22T19:21:46.800Z,91.18
2022-10-22T19:24:17.772Z,90.97
2022-10-22T19:26:46.023Z,90.98
2022-10-22T19:29:17.174Z,91.08
2022-10-22T19:31:44.525Z,91.29
2022-10-22T19:34:11.894Z,90.51
2022-10-22T19:36:39.150Z,90.03
2022-10-22T19:39:06.806Z,90.26
2022-10-22T19:41:34.148Z,90.46
2022-10-22T19:44:01.751Z,90.29
2022-10-22T19:46:32.565Z,90.34
2022-10-22T19:49:01.452Z,90.38
2022-10-22T19:51:30.518Z,90.57
2022-10-22T19:54:07.216Z,90.00
2022-10-22T19:56:37.521Z,90.09
2022-10-22T19:59:07.178Z,90.20
2022-10-22T20:01:36.265Z,89.81
2022-10-22T20:04:07.709Z,89.47
2022-10-22T20:06:34.937Z,89.92
2022-10-22T20:09:01.931Z,89.39
2022-10-22T20:11:30.127Z,89.32
2022-10-22T20:13:58.120Z,89.63
2022-10-22T20:16:29.572Z,89.37
2022-10-22T20:19:01.502Z,89.09
2022-10-22T20:21:29.140Z,89.21
2022-10-22T20:23:57.435Z,89.14
2022-10-22T20:26:27.788Z,88.99
2022-10-22T20:28:58.290Z,89.34
2022-10-22T20:31:29.155Z,88.97
2022-10-22T20:34:01.266Z,89.19
2022-10-22T20:36:31.458Z,89.44
2022-10-22T20:39:06.283Z,89.66
2022-10-22T20:41:35.091Z,89.00
2022-10-22T20:44:01.996Z,88.77
2022-10-22T20:46:32.094Z,88.78
2022-10-22T20:49:11.821Z,88.98
2022-10-22T20:51:39.073Z,89.00
2022-10-22T20:54:07.568Z,88.35
2022-10-22T20:56:40.146Z,89.21
2022-10-22T20:59:10.696Z,88.86
2022-10-22T21:01:42.742Z,88.68
2022-10-22T21:04:09.962Z,89.04
2022-10-22T21:06:41.315Z,88.74
2022-10-22T21:09:10.742Z,88.71
2022-10-22T21:11:39.033Z,88.43
2022-10-22T21:14:08.748Z,87.97
2022-10-22T21:16:35.891Z,88.29
2022-10-22T21:19:02.836Z,88.81
2022-10-22T21:21:29.772Z,88.42
2022-10-22T21:23:56.693Z,88.80
2022-10-22T21:26:23.657Z,89.06
2022-10-22T21:28:50.834Z,88.73
2022-10-22T21:31:26.079Z,88.66
2022-10-22T21:33:54.042Z,88.97
2022-10-22T21:36:23.363Z,89.03
2022-10-22T21:38:52.210Z,88.75
2022-10-22T21:41:21.793Z,88.82
2022-10-22T21:43:49.301Z,88.89
2022-10-22T21:46:23.090Z,88.75
2022-10-22T21:49:01.390Z,88.60
2022-10-22T21:51:35.150Z,89.31
2022-10-22T21:54:02.215Z,88.88
2022-10-22T21:56:34.281Z,88.75
2022-10-22T21:59:04.118Z,88.84
2022-10-22T22:01:31.212Z,88.93
2022-10-22T22:03:58.753Z,88.15
2022-10-22T22:06:29.641Z,88.78
2022-10-22T22:08:59.278Z,88.83
2022-10-22T22:11:28.103Z,88.74
2022-10-22T22:13:57.443Z,88.69
2022-10-22T22:16:29.324Z,88.64
2022-10-22T22:18:58.917Z,88.27
2022-10-22T22:21:26.262Z,88.22
2022-10-22T22:23:53.818Z,88.62
2022-10-22T22:26:28.285Z,88.62
2022-10-22T22:28:58.451Z,88.40
2022-10-22T22:31:32.031Z,88.12
2022-10-22T22:34:08.417Z,88.41
2022-10-22T22:36:41.912Z,88.75
2022-10-22T22:39:12.895Z,88.39
2022-10-22T22:41:41.240Z,88.05
2022-10-22T22:44:08.362Z,88.52
2022-10-22T22:46:35.918Z,88.21
2022-10-22T22:49:03.847Z,88.10
2022-10-22T22:51:31.137Z,87.79
2022-10-22T22:54:00.074Z,88.03
2022-10-22T22:56:30.106Z,88.02
2022-10-22T22:58:57.756Z,88.35
2022-10-22T23:01:37.546Z,88.43
2022-10-22T23:04:13.258Z,87.89
2022-10-22T23:06:40.522Z,87.84
2022-10-22T23:09:11.827Z,88.00
2022-10-22T23:11:40.449Z,88.00
2022-10-22T23:14:10.316Z,88.21
2022-10-22T23:16:41.999Z,87.73
2022-10-22T23:19:10.030Z,87.62
2022-10-22T23:21:41.496Z,87.21
2022-10-22T23:24:13.405Z,87.83
2022-10-22T23:26:48.097Z,87.14
2022-10-22T23:29:19.682Z,87.63
2022-10-22T23:31:48.018Z,87.66
2022-10-22T23:36:53.342Z,88.00
2022-10-22T23:39:24.244Z,87.57
2022-10-22T23:41:53.030Z,87.39
2022-10-22T23:44:21.866Z,87.78
2022-10-22T23:46:48.830Z,87.81
2022-10-22T23:49:16.541Z,87.71
2022-10-22T23:51:43.511Z,87.71
2022-10-22T23:54:17.687Z,87.68
2022-10-22T23:56:44.864Z,87.61
